KFDR/FDR METAR and TAF weather

Enter ICAO airport designator
Station Type Date Time Source
KFDR METAR 2021/05/14 13:53 UTC NOAA

KFDR 141353Z AUTO 17013KT 10SM CLR 18/11 A3018 RMK AO2 SLP210 T01780106


Station Type Date Time Source
KFDR Decoded METAR 2021/05/14 13:53 UTC NOAA

FREDERICK MUNICIPAL AIRPORT, OK, United States (KFDR) 34-21N 98-59W 377M
May 14, 2021 - 09:53 AM EDT / 2021.05.14 1353 UTC
Wind: from the S (170 degrees) at 15 MPH (13 KT):0
Visibility: 10 mile(s):0
Sky conditions: clear
Temperature: 64.0 F (17.8 C)
Dew Point: 51.1 F (10.6 C)
Relative Humidity: 62%
Pressure (altimeter): 30.18 in. Hg (1022 hPa)
ob: KFDR 141353Z AUTO 17013KT 10SM CLR 18/11 A3018 RMK AO2 SLP210 T01780106
cycle: 14

Station Type Date Time Source
KFDR TAF UTC NOAA

Error!

Example: see airport list